createdAt,value
2019-04-21T00:00:58.526Z,30.00
2019-04-21T00:03:27.566Z,27.53
2019-04-21T00:06:09.471Z,26.30
2019-04-21T00:08:42.814Z,26.37
2019-04-21T00:11:10.751Z,25.77
2019-04-21T00:13:33.147Z,27.80
2019-04-21T00:15:53.445Z,24.53
2019-04-21T00:18:15.524Z,23.73
2019-04-21T00:20:49.519Z,24.70
2019-04-21T00:23:30.013Z,25.33
2019-04-21T00:25:52.573Z,25.40
2019-04-21T00:28:33.244Z,25.25
2019-04-21T00:30:56.877Z,23.23
2019-04-21T00:33:12.508Z,24.07
2019-04-21T00:35:42.619Z,23.20
2019-04-21T00:38:25.177Z,21.97
2019-04-21T00:40:54.099Z,23.33
2019-04-21T00:43:15.192Z,22.47
2019-04-21T00:45:43.532Z,20.23
2019-04-21T00:48:21.369Z,18.30
2019-04-21T00:51:03.441Z,20.43
2019-04-21T00:53:22.570Z,22.07
2019-04-21T00:55:53.437Z,22.10
2019-04-21T00:58:19.453Z,24.50
2019-04-21T01:00:46.015Z,22.03
2019-04-21T01:03:14.505Z,21.27
2019-04-21T01:05:49.806Z,21.63
2019-04-21T01:08:09.960Z,20.70
2019-04-21T01:10:28.765Z,22.63
2019-04-21T01:13:12.905Z,23.20
2019-04-21T01:15:37.374Z,21.90
2019-04-21T01:18:06.358Z,20.87
2019-04-21T01:20:17.256Z,22.07
2019-04-21T01:22:41.501Z,19.83
2019-04-21T01:25:19.274Z,18.80
2019-04-21T01:27:56.446Z,19.10
2019-04-21T01:30:29.171Z,17.97
2019-04-21T01:32:55.768Z,16.67
2019-04-21T01:35:25.696Z,19.37
2019-04-21T01:38:10.943Z,18.53
2019-04-21T01:42:51.111Z,22.53
2019-04-21T01:45:14.737Z,22.80
2019-04-21T01:47:40.850Z,21.07
2019-04-21T01:50:05.749Z,26.27
2019-04-21T01:52:54.638Z,27.03
2019-04-21T01:55:13.795Z,26.63
2019-04-21T01:57:37.783Z,24.40
2019-04-21T02:00:00.486Z,27.33
2019-04-21T02:02:44.823Z,27.58
2019-04-21T02:05:10.549Z,27.07
2019-04-21T02:07:40.290Z,27.32
2019-04-21T02:10:12.821Z,29.30
2019-04-21T02:12:36.142Z,25.53
2019-04-21T02:15:04.825Z,24.60
2019-04-21T02:17:31.054Z,24.15
2019-04-21T02:19:57.366Z,22.33
2019-04-21T02:22:43.107Z,20.72
2019-04-21T02:25:01.016Z,20.33
2019-04-21T02:27:23.396Z,21.87
2019-04-21T02:29:55.248Z,19.97
2019-04-21T02:32:42.100Z,18.30
2019-04-21T02:35:18.730Z,18.87
2019-04-21T02:40:04.973Z,18.17
2019-04-21T02:42:31.528Z,19.27
2019-04-21T02:44:55.452Z,17.80
2019-04-21T02:47:37.981Z,18.53
2019-04-21T02:50:00.268Z,17.07
2019-04-21T02:55:02.700Z,18.48
2019-04-21T02:57:19.034Z,18.20
2019-04-21T02:59:49.688Z,19.57
2019-04-21T03:02:14.510Z,17.77
2019-04-21T03:04:42.250Z,18.23
2019-04-21T03:07:14.887Z,17.60
2019-04-21T03:12:11.187Z,18.77
2019-04-21T03:14:46.430Z,16.27
2019-04-21T03:17:09.113Z,17.77
2019-04-21T03:22:07.138Z,17.93
2019-04-21T03:24:59.061Z,17.45
2019-04-21T03:42:02.160Z,15.73
2019-04-21T03:44:26.700Z,16.42
2019-04-21T03:47:08.452Z,15.20
2019-04-21T03:49:28.999Z,16.03
2019-04-21T03:51:47.539Z,17.05
2019-04-21T03:57:10.568Z,19.80
2019-04-21T03:59:09.510Z,18.90
2019-04-21T04:01:41.070Z,16.80
2019-04-21T04:04:22.356Z,16.53
2019-04-21T04:06:43.071Z,15.83
2019-04-21T04:14:15.830Z,14.07
2019-04-21T04:16:41.267Z,13.83
2019-04-21T04:18:57.743Z,14.70
2019-04-21T04:26:33.432Z,14.90
2019-04-21T04:28:58.026Z,15.30
2019-04-21T04:31:30.420Z,15.97
2019-04-21T04:36:46.674Z,15.80
2019-04-21T04:39:04.771Z,15.23
2019-04-21T04:41:24.449Z,16.27
2019-04-21T04:43:54.673Z,15.63
2019-04-21T04:46:17.821Z,16.37
2019-04-21T04:48:54.966Z,17.32
2019-04-21T04:51:23.006Z,15.67
2019-04-21T04:59:20.210Z,15.83
2019-04-21T05:14:02.668Z,15.93
2019-04-21T05:16:37.870Z,17.07
2019-04-21T05:19:06.347Z,15.03
2019-04-21T05:21:30.653Z,16.13
2019-04-21T05:23:50.093Z,17.20
2019-04-21T05:26:10.972Z,16.43
2019-04-21T05:28:40.691Z,16.23
2019-04-21T05:31:19.836Z,15.93
2019-04-21T05:33:57.736Z,14.80
2019-04-21T05:36:20.444Z,14.03
2019-04-21T05:38:47.786Z,15.97
2019-04-21T05:41:11.055Z,15.70
2019-04-21T05:43:51.442Z,13.30
2019-04-21T05:46:25.345Z,15.33
2019-04-21T05:48:52.608Z,14.47
2019-04-21T05:51:13.129Z,13.60
2019-04-21T05:54:03.540Z,13.60
2019-04-21T05:56:33.631Z,14.13
2019-04-21T05:58:58.139Z,14.13
2019-04-21T06:01:34.516Z,13.33
2019-04-21T06:04:05.511Z,13.40
2019-04-21T06:06:34.051Z,12.00
2019-04-21T06:09:11.065Z,14.10
2019-04-21T06:11:35.965Z,14.00
2019-04-21T06:14:08.382Z,14.27
2019-04-21T06:16:46.356Z,14.05
2019-04-21T06:19:11.486Z,14.20
2019-04-21T06:21:38.865Z,13.57
2019-04-21T06:24:15.673Z,13.47
2019-04-21T06:27:03.207Z,13.97
2019-04-21T06:29:21.559Z,13.77
2019-04-21T06:32:12.732Z,15.60
2019-04-21T06:34:28.905Z,14.50
2019-04-21T06:41:49.257Z,14.97
2019-04-21T06:44:16.863Z,14.93
2019-04-21T06:46:54.818Z,14.70
2019-04-21T06:49:15.687Z,14.30
2019-04-21T06:51:48.209Z,15.07
2019-04-21T06:54:23.891Z,15.43
2019-04-21T06:57:00.277Z,15.20
2019-04-21T07:02:22.505Z,14.67
2019-04-21T07:04:54.842Z,13.57
2019-04-21T07:07:12.935Z,14.27
2019-04-21T07:09:35.710Z,13.50
2019-04-21T07:12:07.421Z,13.60
2019-04-21T07:14:34.567Z,13.53
2019-04-21T07:17:11.375Z,13.03
2019-04-21T07:19:36.656Z,13.28
2019-04-21T07:22:04.777Z,14.07
2019-04-21T07:24:31.888Z,14.85
2019-04-21T07:27:03.895Z,13.57
2019-04-21T07:29:32.570Z,13.47
2019-04-21T07:31:58.717Z,13.53
2019-04-21T07:34:28.751Z,12.80
2019-04-21T07:46:38.630Z,12.20
2019-04-21T07:49:12.804Z,11.65
2019-04-21T07:51:51.907Z,12.70
2019-04-21T07:54:17.174Z,12.80
2019-04-21T07:56:28.762Z,12.50
2019-04-21T07:59:18.905Z,11.20
2019-04-21T08:01:35.635Z,10.70
2019-04-21T08:04:14.727Z,10.10
2019-04-21T08:19:10.008Z,9.35
2019-04-21T08:26:36.898Z,8.80
2019-04-21T08:44:52.975Z,7.60
2019-04-21T08:47:30.046Z,7.00
2019-04-21T08:49:57.235Z,7.25
2019-04-21T08:52:42.739Z,8.00
2019-04-21T08:54:56.058Z,7.53
2019-04-21T08:57:35.691Z,6.57
2019-04-21T09:00:04.890Z,7.17
2019-04-21T09:02:35.143Z,7.40
2019-04-21T09:05:03.414Z,7.23
2019-04-21T09:07:36.313Z,6.30
2019-04-21T09:09:57.775Z,6.00
2019-04-21T09:12:29.097Z,5.90
2019-04-21T09:14:55.301Z,7.10
2019-04-21T09:17:22.067Z,7.60
2019-04-21T09:20:04.097Z,5.97
2019-04-21T09:22:17.416Z,6.63
2019-04-21T09:24:51.633Z,6.10
2019-04-21T09:29:37.962Z,6.33
2019-04-21T09:46:52.382Z,5.60
2019-04-21T09:56:48.391Z,5.00
2019-04-21T09:59:17.980Z,4.35
2019-04-21T10:06:39.588Z,4.75
2019-04-21T10:09:09.531Z,5.47
2019-04-21T10:11:37.758Z,3.92
2019-04-21T10:26:26.815Z,5.30
2019-04-21T10:28:58.968Z,5.95
2019-04-21T10:31:24.842Z,4.50
2019-04-21T10:48:53.083Z,5.00
2019-04-21T11:16:05.388Z,8.13
2019-04-21T11:28:22.987Z,6.70
2019-04-21T11:30:53.083Z,5.07
2019-04-21T11:33:22.968Z,5.25
2019-04-21T11:35:53.170Z,5.70
2019-04-21T11:38:26.635Z,4.90
2019-04-21T11:40:55.923Z,5.20
2019-04-21T12:08:20.768Z,5.50
2019-04-21T12:10:41.850Z,5.57
2019-04-21T12:13:12.071Z,4.93
2019-04-21T12:20:35.420Z,4.60
2019-04-21T12:23:07.191Z,4.67
2019-04-21T12:25:34.703Z,5.17
2019-04-21T12:28:01.771Z,5.23
2019-04-21T12:30:29.442Z,5.22
2019-04-21T12:33:00.198Z,5.83
2019-04-21T12:35:30.086Z,5.10
2019-04-21T12:38:00.603Z,4.90
2019-04-21T12:40:30.646Z,4.77
2019-04-21T12:43:00.964Z,5.03
2019-04-21T12:45:31.626Z,5.28
2019-04-21T12:48:00.034Z,5.60
2019-04-21T12:50:29.985Z,4.97
2019-04-21T12:53:01.363Z,5.20
2019-04-21T12:55:35.153Z,4.87
2019-04-21T12:58:01.442Z,4.90
2019-04-21T13:00:31.235Z,4.65
2019-04-21T13:03:01.548Z,4.70
2019-04-21T13:05:31.548Z,4.92
2019-04-21T13:08:03.679Z,5.67
2019-04-21T13:10:31.828Z,5.77
2019-04-21T13:12:59.998Z,5.15
2019-04-21T13:15:31.328Z,4.80
2019-04-21T13:18:01.023Z,5.80
2019-04-21T13:20:29.651Z,5.63
2019-04-21T13:22:57.795Z,4.93
2019-04-21T13:25:27.794Z,5.53
2019-04-21T13:27:54.459Z,5.20
2019-04-21T13:33:09.223Z,5.70
2019-04-21T13:35:39.025Z,5.75
2019-04-21T13:38:17.265Z,5.47
2019-04-21T13:40:53.402Z,5.60
2019-04-21T13:43:08.287Z,5.70
2019-04-21T13:45:34.288Z,5.15
2019-04-21T13:48:10.614Z,5.40
2019-04-21T13:50:37.291Z,5.40
2019-04-21T13:53:06.846Z,5.70
2019-04-21T13:55:36.906Z,5.27
2019-04-21T13:58:04.288Z,5.17
2019-04-21T14:00:35.803Z,5.13
2019-04-21T14:03:07.019Z,5.20
2019-04-21T14:05:33.172Z,4.97
2019-04-21T14:08:01.040Z,5.30
2019-04-21T14:10:29.218Z,5.15
2019-04-21T14:12:56.374Z,4.50
2019-04-21T14:15:24.620Z,5.03
2019-04-21T14:17:53.054Z,5.07
2019-04-21T14:20:22.374Z,4.83
2019-04-21T14:22:49.701Z,4.70
2019-04-21T14:25:19.640Z,5.10
2019-04-21T14:27:49.962Z,4.62
2019-04-21T14:30:18.575Z,4.62
2019-04-21T14:32:44.790Z,5.10
2019-04-21T14:38:00.519Z,5.40
2019-04-21T14:40:31.356Z,5.07
2019-04-21T14:42:56.282Z,5.40
2019-04-21T14:45:24.982Z,5.40
2019-04-21T14:47:54.155Z,5.13
2019-04-21T14:50:22.142Z,4.90
2019-04-21T14:52:50.645Z,5.17
2019-04-21T14:55:20.826Z,5.03
2019-04-21T14:57:51.679Z,4.53
2019-04-21T15:00:20.938Z,5.00
2019-04-21T15:02:51.816Z,5.53
2019-04-21T15:05:21.791Z,4.70
2019-04-21T15:07:49.029Z,4.62
2019-04-21T15:10:23.425Z,5.17
2019-04-21T15:12:47.758Z,4.70
2019-04-21T15:15:18.093Z,4.35
2019-04-21T15:17:47.646Z,4.70
2019-04-21T15:20:17.789Z,4.83
2019-04-21T15:22:50.289Z,4.90
2019-04-21T15:28:09.615Z,4.50
2019-04-21T15:30:36.584Z,4.80
2019-04-21T15:33:04.643Z,5.55
2019-04-21T15:35:40.652Z,4.80
2019-04-21T15:38:09.847Z,5.22
2019-04-21T15:40:50.543Z,4.73
2019-04-21T15:43:10.591Z,5.13
2019-04-21T15:45:42.389Z,4.70
2019-04-21T15:48:09.734Z,4.90
2019-04-21T15:50:44.231Z,4.30
2019-04-21T15:53:09.716Z,5.07
2019-04-21T15:55:38.997Z,5.30
2019-04-21T15:58:08.499Z,4.60
2019-04-21T16:00:36.348Z,4.50
2019-04-21T16:03:06.821Z,5.53
2019-04-21T16:05:35.178Z,4.47
2019-04-21T16:08:02.194Z,4.90
2019-04-21T16:10:56.653Z,5.20
2019-04-21T16:13:21.665Z,4.87
2019-04-21T16:15:48.517Z,4.40
2019-04-21T16:18:16.159Z,5.20
2019-04-21T16:20:43.910Z,4.57
2019-04-21T16:23:10.936Z,4.93
2019-04-21T16:25:39.015Z,5.13
2019-04-21T16:28:05.941Z,4.97
2019-04-21T16:30:34.073Z,4.80
2019-04-21T16:33:01.959Z,5.03
2019-04-21T16:35:29.550Z,5.58
2019-04-21T16:37:57.872Z,4.77
2019-04-21T16:40:25.476Z,4.97
2019-04-21T16:42:52.527Z,4.43
2019-04-21T16:45:19.204Z,5.10
2019-04-21T16:47:55.990Z,4.87
2019-04-21T16:50:23.870Z,5.23
2019-04-21T16:52:52.137Z,4.90
2019-04-21T16:55:19.171Z,4.20
2019-04-21T16:57:59.602Z,4.30
2019-04-21T17:00:29.077Z,4.83
2019-04-21T17:02:52.468Z,4.27
2019-04-21T17:05:22.384Z,4.50
2019-04-21T17:07:53.086Z,4.72
2019-04-21T17:10:20.519Z,4.40
2019-04-21T17:12:47.985Z,4.27
2019-04-21T17:15:32.326Z,4.40
2019-04-21T17:18:06.435Z,4.50
2019-04-21T17:22:46.183Z,4.22
2019-04-21T17:25:16.081Z,4.20
2019-04-21T17:27:47.276Z,4.30
2019-04-21T17:30:16.622Z,4.30
2019-04-21T17:32:48.431Z,4.30
2019-04-21T17:35:12.577Z,4.20
2019-04-21T17:37:42.364Z,4.13
2019-04-21T17:40:13.450Z,4.67
2019-04-21T17:42:48.875Z,4.90
2019-04-21T17:45:11.342Z,4.03
2019-04-21T17:47:48.222Z,4.08
2019-04-21T17:50:07.794Z,4.00
2019-04-21T17:52:45.127Z,4.37
2019-04-21T17:55:16.830Z,4.17
2019-04-21T17:57:57.053Z,4.70
2019-04-21T18:00:41.442Z,4.47
2019-04-21T18:03:01.854Z,3.90
2019-04-21T18:05:30.407Z,4.00
2019-04-21T18:07:51.450Z,4.20
2019-04-21T18:10:19.207Z,4.00
2019-04-21T18:12:45.895Z,4.07
2019-04-21T18:15:21.777Z,3.87
2019-04-21T18:17:36.578Z,4.10
2019-04-21T18:20:07.872Z,4.20
2019-04-21T18:27:34.492Z,6.37
2019-04-21T18:30:06.427Z,6.83
2019-04-21T18:32:39.725Z,7.17
2019-04-21T18:35:07.039Z,6.90
2019-04-21T18:40:21.512Z,7.10
2019-04-21T18:43:04.440Z,6.90
2019-04-21T18:47:53.918Z,6.50
2019-04-21T18:50:08.421Z,6.80
2019-04-21T18:52:55.579Z,6.10
2019-04-21T18:55:16.333Z,5.70
2019-04-21T18:57:41.524Z,5.83
2019-04-21T19:00:11.554Z,5.30
2019-04-21T19:05:15.494Z,6.22
2019-04-21T19:07:59.841Z,5.90
2019-04-21T19:10:29.582Z,5.65
2019-04-21T19:13:23.167Z,5.40
2019-04-21T19:15:27.250Z,6.20
2019-04-21T19:18:28.294Z,5.57
2019-04-21T19:20:26.015Z,5.47
2019-04-21T19:22:52.438Z,5.20
2019-04-21T19:25:23.894Z,6.58
2019-04-21T19:27:48.802Z,5.97
2019-04-21T19:30:30.074Z,5.75
2019-04-21T19:32:49.711Z,6.58
2019-04-21T19:35:02.381Z,5.93
2019-04-21T19:37:38.864Z,6.17
2019-04-21T19:40:09.613Z,5.83
2019-04-21T19:42:37.965Z,5.97
2019-04-21T19:45:10.702Z,6.07
2019-04-21T19:47:46.026Z,5.83
2019-04-21T19:50:10.741Z,5.85
2019-04-21T19:52:31.988Z,5.07
2019-04-21T19:54:50.620Z,5.90
2019-04-21T19:57:16.915Z,5.50
2019-04-21T19:59:48.459Z,5.10
2019-04-21T20:02:14.193Z,5.85
2019-04-21T20:04:50.318Z,5.63
2019-04-21T20:07:22.883Z,5.83
2019-04-21T20:09:56.579Z,6.13
2019-04-21T20:12:34.262Z,5.53
2019-04-21T20:15:00.684Z,5.57
2019-04-21T20:17:13.663Z,5.90
2019-04-21T20:19:32.416Z,6.30
2019-04-21T20:22:00.626Z,6.03
2019-04-21T20:24:31.688Z,5.90
2019-04-21T20:27:03.591Z,5.93
2019-04-21T20:29:47.077Z,5.90
2019-04-21T20:32:20.040Z,6.00
2019-04-21T20:34:38.676Z,6.80
2019-04-21T20:37:15.015Z,5.60
2019-04-21T20:39:28.332Z,6.50
2019-04-21T20:42:16.634Z,6.40
2019-04-21T20:44:48.354Z,5.90
2019-04-21T20:47:16.610Z,5.90
2019-04-21T20:49:41.518Z,5.80
2019-04-21T20:52:23.897Z,5.65
2019-04-21T20:54:49.382Z,6.47
2019-04-21T20:57:24.119Z,5.60
2019-04-21T20:59:43.947Z,5.93
2019-04-21T21:04:56.896Z,5.97
2019-04-21T21:07:50.620Z,5.40
2019-04-21T21:10:07.282Z,5.97
2019-04-21T21:14:57.768Z,5.80
2019-04-21T21:20:02.692Z,5.37
2019-04-21T21:22:27.910Z,5.47
2019-04-21T21:24:57.113Z,6.20
2019-04-21T21:27:26.751Z,5.57
2019-04-21T21:29:56.620Z,5.40
2019-04-21T21:32:32.122Z,5.63
2019-04-21T21:34:59.645Z,5.57
2019-04-21T21:37:32.291Z,5.20
2019-04-21T21:40:04.098Z,5.53
2019-04-21T21:42:11.828Z,5.97
2019-04-21T21:44:40.764Z,5.80
2019-04-21T21:47:25.304Z,6.30
2019-04-21T21:49:52.701Z,5.60
2019-04-21T21:52:18.274Z,5.23
2019-04-21T21:54:37.960Z,5.70
2019-04-21T21:57:08.582Z,5.73
2019-04-21T21:59:38.274Z,5.42
2019-04-21T22:02:09.012Z,5.70
2019-04-21T22:04:44.463Z,5.40
2019-04-21T22:07:12.387Z,5.83
2019-04-21T22:09:36.503Z,6.67
2019-04-21T22:12:06.595Z,6.03
2019-04-21T22:14:41.071Z,5.80
2019-04-21T22:17:20.037Z,6.33
2019-04-21T22:20:01.849Z,5.90
2019-04-21T22:22:18.009Z,6.60
2019-04-21T22:24:46.960Z,6.00
2019-04-21T22:27:03.166Z,6.50
2019-04-21T22:29:36.335Z,6.23
2019-04-21T22:32:07.836Z,6.17
2019-04-21T22:34:34.290Z,6.87
2019-04-21T22:37:14.323Z,7.28
2019-04-21T22:39:44.718Z,6.57
2019-04-21T22:42:05.806Z,5.97
2019-04-21T22:44:22.797Z,6.50
2019-04-21T22:46:58.404Z,7.47
2019-04-21T22:49:19.946Z,7.43
2019-04-21T22:51:50.044Z,6.83
2019-04-21T22:54:22.827Z,6.83
2019-04-21T22:56:53.039Z,6.87
2019-04-21T22:59:20.049Z,6.77
2019-04-21T23:01:47.452Z,7.30
2019-04-21T23:04:11.989Z,7.30
2019-04-21T23:06:40.901Z,7.27
2019-04-21T23:09:08.800Z,7.93
2019-04-21T23:11:43.675Z,7.60
2019-04-21T23:14:09.688Z,6.80
2019-04-21T23:16:36.257Z,7.30
2019-04-21T23:21:55.455Z,6.67
2019-04-21T23:24:26.546Z,7.62
2019-04-21T23:26:49.310Z,8.68
2019-04-21T23:29:17.343Z,7.67
2019-04-21T23:31:52.129Z,8.00
2019-04-21T23:34:00.086Z,7.50
2019-04-21T23:36:31.365Z,7.67
2019-04-21T23:38:58.207Z,7.00
2019-04-21T23:41:26.024Z,7.22
2019-04-21T23:44:00.369Z,6.77
2019-04-21T23:46:26.746Z,7.53
2019-04-21T23:49:07.087Z,6.70
2019-04-21T23:51:31.404Z,6.97
2019-04-21T23:53:49.159Z,7.27
2019-04-21T23:56:23.195Z,6.70
2019-04-21T23:58:51.955Z,7.10
